createdAt,value
2023-02-26T00:00:14.353Z,15.54
2023-02-26T00:02:42.162Z,15.54
2023-02-26T00:05:08.932Z,15.54
2023-02-26T00:07:35.409Z,15.56
2023-02-26T00:10:02.251Z,15.56
2023-02-26T00:12:29.568Z,15.56
2023-02-26T00:14:56.423Z,15.55
2023-02-26T00:17:50.071Z,15.56
2023-02-26T00:20:16.856Z,15.52
2023-02-26T00:22:43.700Z,15.52
2023-02-26T00:25:10.321Z,15.54
2023-02-26T00:27:36.749Z,15.53
2023-02-26T00:30:08.875Z,15.53
2023-02-26T00:32:35.235Z,15.53
2023-02-26T00:35:01.910Z,15.54
2023-02-26T00:37:56.670Z,15.55
2023-02-26T00:40:40.396Z,15.51
2023-02-26T00:43:09.636Z,15.48
2023-02-26T00:45:38.544Z,15.45
2023-02-26T00:48:22.674Z,15.45
2023-02-26T00:51:20.822Z,15.47
2023-02-26T00:53:58.678Z,15.49
2023-02-26T00:56:24.944Z,15.46
2023-02-26T00:58:51.252Z,15.41
2023-02-26T01:01:17.336Z,15.41
2023-02-26T01:03:43.620Z,15.43
2023-02-26T01:06:12.631Z,15.45
2023-02-26T01:08:52.842Z,15.43
2023-02-26T01:11:19.121Z,15.43
2023-02-26T01:13:45.557Z,15.44
2023-02-26T01:16:20.216Z,15.46
2023-02-26T01:18:53.209Z,15.47
2023-02-26T01:21:30.663Z,15.43
2023-02-26T01:23:56.913Z,15.38
2023-02-26T01:26:26.957Z,15.36
2023-02-26T01:28:53.683Z,15.37
2023-02-26T01:31:28.636Z,15.41
2023-02-26T01:34:00.670Z,15.43
2023-02-26T01:36:32.946Z,15.44
2023-02-26T01:39:13.626Z,15.44
2023-02-26T01:41:54.390Z,15.44
2023-02-26T01:44:26.032Z,15.41
2023-02-26T01:47:04.641Z,15.31
2023-02-26T01:49:32.928Z,15.28
2023-02-26T01:52:05.166Z,15.28
2023-02-26T01:54:36.287Z,15.31
2023-02-26T01:57:16.546Z,15.32
2023-02-26T01:59:45.834Z,15.32
2023-02-26T02:02:16.832Z,15.28
2023-02-26T02:04:43.862Z,15.27
2023-02-26T02:07:10.425Z,15.27
2023-02-26T02:09:37.279Z,15.24
2023-02-26T02:12:09.441Z,15.21
2023-02-26T02:14:35.442Z,15.22
2023-02-26T02:17:24.042Z,15.23
2023-02-26T02:20:10.659Z,15.24
2023-02-26T02:22:59.887Z,15.23
2023-02-26T02:26:02.703Z,15.18
2023-02-26T02:28:55.443Z,15.16
2023-02-26T02:31:48.011Z,15.13
2023-02-26T02:34:40.522Z,15.13
2023-02-26T02:37:16.719Z,15.12
2023-02-26T02:39:49.212Z,15.12
2023-02-26T02:42:31.339Z,15.13
2023-02-26T02:45:20.629Z,15.13
2023-02-26T02:47:58.555Z,15.10
2023-02-26T02:50:37.324Z,15.05
2023-02-26T02:53:23.868Z,15.03
2023-02-26T02:55:57.216Z,15.06
2023-02-26T02:58:30.092Z,15.08
2023-02-26T03:01:00.746Z,15.11
2023-02-26T03:03:44.569Z,15.14
2023-02-26T03:06:10.855Z,15.13
2023-02-26T03:08:40.797Z,15.13
2023-02-26T03:11:08.823Z,15.13
2023-02-26T03:13:37.035Z,15.14
2023-02-26T03:16:11.870Z,15.14
2023-02-26T03:19:04.102Z,15.16
2023-02-26T03:21:43.829Z,15.12
2023-02-26T03:24:24.512Z,15.04
2023-02-26T03:27:04.099Z,15.01
2023-02-26T03:29:41.828Z,15.02
2023-02-26T03:32:15.505Z,15.02
2023-02-26T03:34:48.128Z,15.01
2023-02-26T03:37:20.592Z,15.05
2023-02-26T03:39:48.247Z,15.07
2023-02-26T03:42:27.507Z,15.07
2023-02-26T03:45:17.497Z,15.08
2023-02-26T03:47:48.803Z,15.06
2023-02-26T03:50:19.965Z,15.05
2023-02-26T03:53:00.686Z,15.05
2023-02-26T03:55:52.231Z,15.02
2023-02-26T03:58:54.354Z,14.99
2023-02-26T04:01:43.009Z,15.00
2023-02-26T04:04:21.317Z,15.01
2023-02-26T04:06:47.982Z,14.97
2023-02-26T04:09:16.074Z,14.94
2023-02-26T04:11:43.261Z,14.95
2023-02-26T04:14:10.472Z,14.95
2023-02-26T04:16:38.588Z,14.98
2023-02-26T04:19:04.673Z,15.01
2023-02-26T04:21:30.946Z,14.98
2023-02-26T04:23:57.148Z,14.98
2023-02-26T04:26:23.930Z,14.98
2023-02-26T04:28:50.154Z,14.97
2023-02-26T04:31:16.723Z,14.90
2023-02-26T04:33:43.432Z,14.84
2023-02-26T04:36:10.067Z,14.82
2023-02-26T04:38:36.320Z,14.84
2023-02-26T04:41:03.810Z,14.86
2023-02-26T04:43:29.920Z,14.86
2023-02-26T04:46:21.959Z,14.86
2023-02-26T04:48:48.140Z,14.81
2023-02-26T04:51:14.282Z,14.83
2023-02-26T04:53:40.819Z,14.86
2023-02-26T04:56:07.353Z,14.87
2023-02-26T04:58:33.832Z,14.87
2023-02-26T05:01:04.069Z,14.90
2023-02-26T05:03:30.116Z,14.93
2023-02-26T05:05:56.794Z,14.95
2023-02-26T05:08:22.974Z,14.97
2023-02-26T05:10:51.679Z,14.97
2023-02-26T05:13:18.951Z,14.99
2023-02-26T05:15:45.566Z,14.99
2023-02-26T05:18:11.977Z,14.99
2023-02-26T05:20:38.242Z,14.99
2023-02-26T05:23:04.408Z,15.00
2023-02-26T05:25:30.571Z,15.04
2023-02-26T05:27:56.835Z,15.08
2023-02-26T05:30:23.288Z,15.11
2023-02-26T05:32:49.591Z,15.16
2023-02-26T05:35:15.751Z,15.17
2023-02-26T05:37:41.923Z,15.18
2023-02-26T05:40:11.920Z,15.25
2023-02-26T05:42:39.227Z,15.30
2023-02-26T05:45:06.829Z,15.37
2023-02-26T05:47:34.079Z,15.45
2023-02-26T05:50:00.786Z,15.51
2023-02-26T05:52:26.936Z,15.53
2023-02-26T05:54:52.946Z,15.56
2023-02-26T05:57:19.006Z,15.62
2023-02-26T05:59:45.167Z,15.69
2023-02-26T06:02:11.290Z,15.72
2023-02-26T06:04:37.556Z,15.76
2023-02-26T06:07:03.828Z,15.81
2023-02-26T06:09:29.931Z,15.86
2023-02-26T06:11:56.118Z,15.94
2023-02-26T06:14:22.281Z,16.01
2023-02-26T06:16:48.606Z,16.10
2023-02-26T06:19:14.710Z,16.22
2023-02-26T06:21:40.774Z,16.30
2023-02-26T06:24:07.154Z,16.37
2023-02-26T06:26:33.175Z,16.49
2023-02-26T06:28:59.262Z,16.65
2023-02-26T06:31:25.507Z,16.81
2023-02-26T06:33:51.587Z,16.97
2023-02-26T06:36:17.642Z,17.12
2023-02-26T06:38:44.854Z,17.25
2023-02-26T06:41:11.478Z,17.40
2023-02-26T06:43:37.837Z,17.50
2023-02-26T06:46:04.186Z,17.66
2023-02-26T06:48:30.321Z,17.92
2023-02-26T06:50:56.438Z,18.20
2023-02-26T06:53:23.035Z,18.41
2023-02-26T06:55:51.689Z,18.51
2023-02-26T06:58:18.320Z,18.66
2023-02-26T07:00:44.773Z,18.98
2023-02-26T07:03:16.248Z,19.28
2023-02-26T07:05:43.336Z,19.43
2023-02-26T07:08:09.543Z,19.64
2023-02-26T07:10:36.603Z,19.92
2023-02-26T07:13:02.810Z,20.30
2023-02-26T07:15:29.510Z,20.75
2023-02-26T07:17:55.817Z,21.25
2023-02-26T07:20:22.271Z,21.68
2023-02-26T07:22:48.966Z,22.09
2023-02-26T07:25:15.417Z,22.35
2023-02-26T07:27:43.731Z,22.53
2023-02-26T07:30:10.814Z,22.74
2023-02-26T07:32:37.313Z,22.96
2023-02-26T07:35:04.073Z,23.01
2023-02-26T07:37:30.329Z,23.11
2023-02-26T07:39:56.404Z,23.12
2023-02-26T07:42:22.678Z,22.75
2023-02-26T07:44:50.316Z,22.79
2023-02-26T07:47:17.311Z,23.09
2023-02-26T07:49:43.443Z,23.43
2023-02-26T07:52:09.875Z,23.81
2023-02-26T07:54:36.136Z,24.19
2023-02-26T07:57:02.772Z,24.22
2023-02-26T07:59:28.898Z,24.31
2023-02-26T08:01:55.310Z,24.30
2023-02-26T08:04:21.467Z,24.16
2023-02-26T08:06:47.798Z,24.12
2023-02-26T08:09:13.982Z,24.05
2023-02-26T08:11:42.659Z,23.84
2023-02-26T08:14:10.655Z,23.62
2023-02-26T08:16:36.853Z,23.45
2023-02-26T08:19:03.129Z,23.32
2023-02-26T08:21:29.240Z,23.19
2023-02-26T08:23:55.532Z,23.01
2023-02-26T08:26:21.882Z,22.88
2023-02-26T08:28:48.310Z,22.71
2023-02-26T08:31:15.034Z,22.58
2023-02-26T08:33:41.555Z,22.41
2023-02-26T08:36:08.126Z,22.27
2023-02-26T08:38:34.395Z,22.18
2023-02-26T08:41:00.570Z,22.15
2023-02-26T08:43:26.819Z,22.05
2023-02-26T08:45:54.422Z,22.04
2023-02-26T08:48:20.581Z,22.10
2023-02-26T08:50:47.391Z,22.16
2023-02-26T08:53:14.007Z,22.05
2023-02-26T08:55:40.109Z,21.87
2023-02-26T08:58:07.390Z,21.76
2023-02-26T09:00:33.967Z,21.65
2023-02-26T09:03:00.182Z,21.47
2023-02-26T09:05:26.640Z,21.36
2023-02-26T09:07:52.749Z,21.34
2023-02-26T09:10:19.573Z,21.26
2023-02-26T09:12:46.284Z,21.27
2023-02-26T09:15:13.910Z,21.48
2023-02-26T09:17:41.164Z,21.73
2023-02-26T09:20:08.610Z,21.97
2023-02-26T09:22:35.871Z,21.94
2023-02-26T09:25:02.540Z,22.08
2023-02-26T09:27:28.732Z,22.33
2023-02-26T09:29:54.896Z,22.67
2023-02-26T09:32:21.247Z,22.97
2023-02-26T09:34:47.532Z,23.30
2023-02-26T09:37:15.871Z,23.64
2023-02-26T09:39:42.005Z,23.88
2023-02-26T09:42:33.464Z,24.11
2023-02-26T09:45:00.445Z,24.21
2023-02-26T09:47:30.723Z,24.28
2023-02-26T09:50:09.439Z,24.23
2023-02-26T09:52:38.325Z,24.23
2023-02-26T09:55:12.078Z,24.21
2023-02-26T09:57:43.622Z,23.83
2023-02-26T10:00:27.536Z,23.25
2023-02-26T10:03:22.844Z,23.12
2023-02-26T10:06:13.342Z,23.28
2023-02-26T10:09:21.560Z,23.59
2023-02-26T10:12:12.497Z,23.76
2023-02-26T10:14:54.293Z,23.87
2023-02-26T10:17:20.472Z,23.93
2023-02-26T10:19:51.123Z,23.99
2023-02-26T10:22:49.351Z,24.08
2023-02-26T10:25:21.221Z,24.16
2023-02-26T10:28:03.553Z,24.13
2023-02-26T10:30:34.183Z,24.07
2023-02-26T10:33:20.204Z,24.04
2023-02-26T10:36:04.710Z,23.97
2023-02-26T10:38:31.772Z,23.95
2023-02-26T10:41:01.573Z,23.88
2023-02-26T10:43:37.718Z,23.82
2023-02-26T10:46:32.963Z,23.79
2023-02-26T10:49:31.968Z,23.71
2023-02-26T10:52:07.936Z,23.62
2023-02-26T10:54:38.478Z,23.53
2023-02-26T10:57:08.662Z,23.49
2023-02-26T10:59:34.780Z,23.45
2023-02-26T11:02:01.025Z,23.36
2023-02-26T11:04:27.673Z,23.24
2023-02-26T11:06:59.362Z,23.14
2023-02-26T11:09:28.443Z,22.97
2023-02-26T11:12:04.025Z,22.80
2023-02-26T11:14:32.518Z,22.61
2023-02-26T11:17:04.225Z,22.38
2023-02-26T11:19:37.775Z,22.21
2023-02-26T11:22:09.064Z,22.12
2023-02-26T11:24:50.059Z,22.00
2023-02-26T11:27:21.953Z,21.91
2023-02-26T11:29:52.907Z,21.73
2023-02-26T11:32:23.093Z,21.57
2023-02-26T11:34:51.340Z,21.45
2023-02-26T11:37:23.530Z,21.32
2023-02-26T11:40:14.061Z,21.19
2023-02-26T11:42:50.263Z,21.07
2023-02-26T11:45:19.308Z,20.93
2023-02-26T11:47:48.004Z,20.82
2023-02-26T11:50:19.244Z,20.73
2023-02-26T11:52:47.971Z,20.49
2023-02-26T11:55:36.158Z,20.33
2023-02-26T11:58:14.446Z,20.28
2023-02-26T12:00:40.723Z,20.15
2023-02-26T12:03:16.890Z,19.95
2023-02-26T12:08:52.889Z,19.93
2023-02-26T12:12:03.537Z,19.96
2023-02-26T12:15:01.061Z,20.04
2023-02-26T12:17:51.806Z,20.09
2023-02-26T12:20:39.942Z,19.91
2023-02-26T12:23:28.155Z,19.76
2023-02-26T12:26:28.431Z,19.77
2023-02-26T12:29:10.561Z,19.75
2023-02-26T12:31:59.997Z,19.67
2023-02-26T12:34:45.391Z,19.53
2023-02-26T12:37:21.515Z,19.38
2023-02-26T12:40:18.391Z,19.30
2023-02-26T12:42:54.187Z,19.26
2023-02-26T12:45:39.468Z,19.19
2023-02-26T12:48:27.665Z,19.17
2023-02-26T12:51:07.293Z,19.25
2023-02-26T12:53:46.414Z,19.29
2023-02-26T12:56:16.441Z,19.25
2023-02-26T12:59:20.973Z,19.25
2023-02-26T13:02:18.178Z,19.30
2023-02-26T13:04:59.582Z,19.34
2023-02-26T13:07:37.824Z,19.37
2023-02-26T13:10:26.215Z,19.32
2023-02-26T13:13:05.395Z,19.27
2023-02-26T13:16:03.052Z,19.29
2023-02-26T13:18:54.087Z,19.36
2023-02-26T13:21:32.829Z,19.41
2023-02-26T13:24:12.357Z,19.45
2023-02-26T13:26:44.953Z,19.45
2023-02-26T13:29:24.570Z,19.46
2023-02-26T13:32:43.588Z,19.49
2023-02-26T13:35:22.983Z,19.52
2023-02-26T13:37:53.288Z,19.57
2023-02-26T13:40:22.799Z,19.65
2023-02-26T13:42:52.953Z,19.68
2023-02-26T13:46:01.124Z,19.58
2023-02-26T13:49:07.239Z,19.49
2023-02-26T13:51:44.672Z,19.47
2023-02-26T13:54:11.838Z,19.51
2023-02-26T13:56:38.731Z,19.50
2023-02-26T13:59:45.579Z,19.44
2023-02-26T14:02:44.467Z,19.41
2023-02-26T14:05:34.658Z,19.34
2023-02-26T14:08:01.551Z,19.35
2023-02-26T14:10:44.742Z,19.38
2023-02-26T14:13:19.197Z,19.41
2023-02-26T14:15:53.142Z,19.42
2023-02-26T14:18:40.204Z,19.41
2023-02-26T14:21:27.599Z,19.43
2023-02-26T14:24:02.082Z,19.39
2023-02-26T14:26:34.056Z,19.38
2023-02-26T14:29:06.915Z,19.36
2023-02-26T14:32:16.086Z,19.29
2023-02-26T14:35:00.195Z,19.24
2023-02-26T14:37:28.867Z,19.19
2023-02-26T14:40:00.779Z,19.14
2023-02-26T14:42:35.026Z,19.10
2023-02-26T14:48:16.754Z,19.00
2023-02-26T14:53:50.643Z,18.79
2023-02-26T14:56:43.962Z,18.72
2023-02-26T14:59:40.048Z,18.61
2023-02-26T15:02:33.664Z,18.54
2023-02-26T15:05:29.262Z,18.55
2023-02-26T15:08:34.684Z,18.55
2023-02-26T15:11:12.590Z,18.52
2023-02-26T15:14:00.278Z,18.46
2023-02-26T15:16:37.375Z,18.39
2023-02-26T15:19:33.246Z,18.34
2023-02-26T15:22:27.963Z,18.30
2023-02-26T15:24:55.107Z,18.28
2023-02-26T15:27:22.486Z,18.24
2023-02-26T15:29:53.477Z,18.07
2023-02-26T15:32:44.920Z,17.92
2023-02-26T15:35:18.561Z,17.88
2023-02-26T15:37:55.893Z,17.85
2023-02-26T15:40:22.740Z,17.81
2023-02-26T15:42:53.970Z,17.78
2023-02-26T15:45:28.136Z,17.76
2023-02-26T15:48:20.213Z,17.74
2023-02-26T15:50:52.875Z,17.73
2023-02-26T15:53:34.252Z,17.69
2023-02-26T15:56:04.957Z,17.63
2023-02-26T15:58:47.280Z,17.59
2023-02-26T16:01:22.350Z,17.57
2023-02-26T16:03:53.406Z,17.53
2023-02-26T16:06:33.437Z,17.42
2023-02-26T16:09:00.985Z,17.34
2023-02-26T16:11:43.110Z,17.33
2023-02-26T16:14:21.618Z,17.32
2023-02-26T16:16:57.006Z,17.31
2023-02-26T16:19:35.734Z,17.30
2023-02-26T16:22:32.190Z,17.19
2023-02-26T16:25:07.305Z,17.08
2023-02-26T16:27:35.830Z,17.05
2023-02-26T16:30:05.165Z,17.03
2023-02-26T16:32:35.352Z,16.99
2023-02-26T16:35:17.301Z,16.96
2023-02-26T16:37:50.135Z,16.87
2023-02-26T16:40:25.901Z,16.83
2023-02-26T16:43:26.951Z,16.82
2023-02-26T16:45:59.674Z,16.76
2023-02-26T16:48:29.911Z,16.73
2023-02-26T16:51:20.328Z,16.72
2023-02-26T16:54:00.178Z,16.65
2023-02-26T16:56:36.510Z,16.64
2023-02-26T16:59:19.369Z,16.63
2023-02-26T17:02:03.082Z,16.64
2023-02-26T17:04:34.483Z,16.65
2023-02-26T17:07:02.460Z,16.64
2023-02-26T17:09:29.500Z,16.65
2023-02-26T17:12:12.994Z,16.62
2023-02-26T17:14:42.905Z,16.56
2023-02-26T17:17:10.498Z,16.59
2023-02-26T17:19:37.993Z,16.63
2023-02-26T17:22:08.849Z,16.64
2023-02-26T17:24:50.524Z,16.64
2023-02-26T17:27:27.300Z,16.51
2023-02-26T17:29:54.301Z,16.50
2023-02-26T17:32:26.997Z,16.51
2023-02-26T17:34:54.685Z,16.53
2023-02-26T17:37:23.069Z,16.53
2023-02-26T17:39:49.909Z,16.49
2023-02-26T17:42:21.335Z,16.47
2023-02-26T17:44:48.887Z,16.47
2023-02-26T17:47:24.342Z,16.39
2023-02-26T17:49:51.742Z,16.37
2023-02-26T17:52:18.954Z,16.35
2023-02-26T17:54:46.213Z,16.33
2023-02-26T17:57:23.052Z,16.34
2023-02-26T17:59:50.245Z,16.36
2023-02-26T18:03:07.882Z,16.37
2023-02-26T18:15:28.401Z,16.24
2023-02-26T18:18:30.750Z,16.24
2023-02-26T19:48:55.616Z,15.11
2023-02-26T19:51:23.039Z,15.12
2023-02-26T19:53:50.548Z,15.12
2023-02-26T19:56:18.162Z,15.02
2023-02-26T19:58:45.826Z,14.92
2023-02-26T20:16:10.183Z,15.19
2023-02-26T20:18:37.902Z,15.14
2023-02-26T20:21:40.909Z,15.06
2023-02-26T20:24:00.521Z,14.98
2023-02-26T20:26:27.847Z,14.93
2023-02-26T20:28:54.705Z,14.88
2023-02-26T20:31:21.829Z,14.80
2023-02-26T20:34:29.015Z,14.77
2023-02-26T20:36:58.193Z,14.77
2023-02-26T20:39:25.189Z,14.76
2023-02-26T20:41:52.080Z,14.77
2023-02-26T20:44:21.141Z,14.75
2023-02-26T20:46:47.648Z,14.69
2023-02-26T20:49:14.185Z,14.54
2023-02-26T20:51:41.629Z,14.50
2023-02-26T20:54:09.480Z,14.48
2023-02-26T20:56:35.824Z,14.41
2023-02-26T20:59:02.143Z,14.42
2023-02-26T21:01:34.881Z,14.38
2023-02-26T21:04:05.395Z,14.35
2023-02-26T21:06:32.026Z,14.36
2023-02-26T21:08:59.796Z,14.35
2023-02-26T21:11:26.418Z,14.38
2023-02-26T21:13:52.862Z,14.41
2023-02-26T21:16:19.088Z,14.33
2023-02-26T21:18:45.541Z,14.26
2023-02-26T21:21:11.642Z,14.25
2023-02-26T21:23:37.728Z,14.29
2023-02-26T21:26:03.981Z,14.33
2023-02-26T21:28:30.224Z,14.34
2023-02-26T21:30:57.070Z,14.35
2023-02-26T21:33:23.347Z,14.30
2023-02-26T21:35:51.141Z,14.17
2023-02-26T21:38:18.556Z,14.13
2023-02-26T21:40:46.110Z,14.16
2023-02-26T21:43:12.894Z,14.20
2023-02-26T21:45:39.923Z,14.19
2023-02-26T21:48:06.086Z,14.07
2023-02-26T21:50:32.992Z,14.05
2023-02-26T21:52:59.301Z,14.09
2023-02-26T21:55:25.555Z,14.10
2023-02-26T21:57:51.685Z,14.07
2023-02-26T22:00:18.511Z,14.08
2023-02-26T22:02:44.900Z,14.12
2023-02-26T22:05:11.703Z,14.08
2023-02-26T22:07:38.533Z,13.96
2023-02-26T22:10:06.561Z,13.91
2023-02-26T22:12:33.512Z,13.96
2023-02-26T22:14:59.848Z,13.91
2023-02-26T22:17:26.048Z,13.76
2023-02-26T22:19:52.180Z,13.74
2023-02-26T22:22:18.200Z,13.75
2023-02-26T22:24:44.440Z,13.83
2023-02-26T22:27:10.927Z,13.77
2023-02-26T22:29:38.538Z,13.75
2023-02-26T22:32:06.668Z,13.82
2023-02-26T22:34:33.626Z,13.84
2023-02-26T22:37:00.915Z,13.84
2023-02-26T22:39:27.076Z,13.90
2023-02-26T22:41:53.277Z,13.95
2023-02-26T22:44:19.349Z,13.99
2023-02-26T22:46:46.723Z,14.00
2023-02-26T22:49:12.833Z,14.03
2023-02-26T22:51:39.029Z,14.02
2023-02-26T22:54:05.257Z,13.93
2023-02-26T22:56:31.796Z,13.86
2023-02-26T22:58:57.829Z,13.87
2023-02-26T23:01:24.147Z,13.85
2023-02-26T23:03:50.282Z,13.70
2023-02-26T23:06:16.499Z,13.71
2023-02-26T23:08:42.614Z,13.78
2023-02-26T23:11:08.768Z,13.84
2023-02-26T23:13:35.619Z,13.85
2023-02-26T23:16:04.483Z,13.78
2023-02-26T23:18:31.621Z,13.74
2023-02-26T23:20:57.812Z,13.69
2023-02-26T23:23:23.977Z,13.73
2023-02-26T23:25:50.189Z,13.79
2023-02-26T23:28:16.329Z,13.82
2023-02-26T23:30:42.426Z,13.84
2023-02-26T23:33:09.588Z,13.87
2023-02-26T23:35:35.707Z,13.75
2023-02-26T23:38:02.377Z,13.61
2023-02-26T23:40:29.036Z,13.62
2023-02-26T23:42:55.605Z,13.66
2023-02-26T23:45:22.256Z,13.63
2023-02-26T23:47:48.380Z,13.61
2023-02-26T23:50:14.655Z,13.62
2023-02-26T23:52:40.737Z,13.52
2023-02-26T23:55:07.471Z,13.52
2023-02-26T23:57:33.588Z,13.54
2023-02-26T23:59:59.716Z,13.58
